Weather at Sultan Aji Muhammad Sulaiman Sepinggan International Airport

Public forecast

Using degrees Celsius for public forecast. Weather courtesy of forecast.io.

Current aviation weather report (METAR) for Sultan Aji Muhammad Sulaiman Sepinggan International Airport

2024/06/20 19:00 (retrieved 47 minutes ago)

WALL 201900Z 25003KT 110V290 9000FEW017CB SCT018 28/25 Q1008 RMK CB TO SW

Closest aviation forecast (TAF) to Sultan Aji Muhammad Sulaiman Sepinggan International Airport

Forecast is more than 6 hours old.

Closest forecast is Aji Pangeran Tumenggung Pranoto International Airport, 57.8 nm (107.0 km) NNE.

2024/06/20 12:00 (retrieved 8 hours ago)

TAF WALL 201100Z 2012/2118 00000KT 9000 FEW020 TAF WALS 201100Z 2012/2024 00000KT 8000 SCT020